Time;durP1;ratioP1;P1;durP2;ratioP2;P2;SDS_P1;SDS_P2;PMS_P1;PMS_P2;Temp;Humidity;BMP_temperature;BMP_pressure;BME280_temperature;BME280_humidity;BME280_pressure;Samples;Min_cycle;Max_cycle;Signal;HPM_P1;HPM_P2
2023/05/15 00:00:56;;;;;;;1.1;1;;;;;;;;;;;;;
2023/05/15 00:03:21;;;;;;;2.1;1.1;;;;;;;;;;;;;
2023/05/15 00:05:48;;;;;;;1.2;1;;;;;;;;;;;;;
2023/05/15 00:08:13;;;;;;;0.9;0.9;;;;;;;;;;;;;
2023/05/15 00:10:38;;;;;;;1;0.9;;;;;;;;;;;;;
2023/05/15 00:13:04;;;;;;;1.7;1;;;;;;;;;;;;;
2023/05/15 00:15:31;;;;;;;1;1;;;;;;;;;;;;;
2023/05/15 00:17:56;;;;;;;1;0.9;;;;;;;;;;;;;
2023/05/15 00:20:22;;;;;;;1.1;0.8;;;;;;;;;;;;;
2023/05/15 00:22:48;;;;;;;0.8;0.8;;;;;;;;;;;;;
2023/05/15 00:25:18;;;;;;;1.1;0.9;;;;;;;;;;;;;
2023/05/15 00:27:41;;;;;;;0.8;0.8;;;;;;;;;;;;;
2023/05/15 00:30:06;;;;;;;1.2;1.1;;;;;;;;;;;;;
2023/05/15 00:32:31;;;;;;;1.3;1.2;;;;;;;;;;;;;
2023/05/15 00:34:57;;;;;;;2.4;1.4;;;;;;;;;;;;;
2023/05/15 00:37:22;;;;;;;2.9;1.8;;;;;;;;;;;;;
2023/05/15 00:39:48;;;;;;;1.9;1.2;;;;;;;;;;;;;
2023/05/15 00:42:13;;;;;;;2.1;1.3;;;;;;;;;;;;;
2023/05/15 00:44:38;;;;;;;1.9;1.1;;;;;;;;;;;;;
2023/05/15 00:47:04;;;;;;;0.7;0.7;;;;;;;;;;;;;
2023/05/15 00:49:29;;;;;;;0.9;0.8;;;;;;;;;;;;;
2023/05/15 00:51:55;;;;;;;0.8;0.8;;;;;;;;;;;;;
2023/05/15 00:54:20;;;;;;;0.8;0.8;;;;;;;;;;;;;
2023/05/15 00:56:47;;;;;;;0.8;0.7;;;;;;;;;;;;;
2023/05/15 00:59:12;;;;;;;1.2;0.9;;;;;;;;;;;;;
2023/05/15 01:01:37;;;;;;;1.4;1.1;;;;;;;;;;;;;
2023/05/15 01:04:02;;;;;;;1.2;0.9;;;;;;;;;;;;;
2023/05/15 01:06:29;;;;;;;1.4;0.8;;;;;;;;;;;;;
2023/05/15 01:08:54;;;;;;;1.3;0.9;;;;;;;;;;;;;
2023/05/15 01:11:20;;;;;;;1;0.9;;;;;;;;;;;;;
2023/05/15 01:13:45;;;;;;;0.9;0.8;;;;;;;;;;;;;
2023/05/15 01:16:11;;;;;;;1;0.9;;;;;;;;;;;;;
2023/05/15 01:18:36;;;;;;;1;0.7;;;;;;;;;;;;;
2023/05/15 01:21:01;;;;;;;1;0.7;;;;;;;;;;;;;
2023/05/15 01:23:26;;;;;;;0.7;0.7;;;;;;;;;;;;;
2023/05/15 01:25:53;;;;;;;1.3;0.9;;;;;;;;;;;;;
2023/05/15 01:28:16;;;;;;;1;0.7;;;;;;;;;;;;;
2023/05/15 01:30:42;;;;;;;0.5;0.5;;;;;;;;;;;;;
2023/05/15 01:33:07;;;;;;;1.1;0.6;;;;;;;;;;;;;
2023/05/15 01:35:32;;;;;;;0.5;0.5;;;;;;;;;;;;;
2023/05/15 01:37:57;;;;;;;0.5;0.5;;;;;;;;;;;;;
2023/05/15 01:40:22;;;;;;;1.5;1;;;;;;;;;;;;;
2023/05/15 01:42:49;;;;;;;0.7;0.5;;;;;;;;;;;;;
2023/05/15 01:45:14;;;;;;;0.5;0.5;;;;;;;;;;;;;
2023/05/15 01:47:41;;;;;;;0.5;0.5;;;;;;;;;;;;;
2023/05/15 01:50:07;;;;;;;0.8;0.8;;;;;;;;;;;;;
2023/05/15 01:52:32;;;;;;;1.1;1;;;;;;;;;;;;;
2023/05/15 01:54:57;;;;;;;0.5;0.5;;;;;;;;;;;;;
2023/05/15 01:57:22;;;;;;;0.5;0.5;;;;;;;;;;;;;
2023/05/15 01:59:47;;;;;;;1.2;0.8;;;;;;;;;;;;;
2023/05/15 02:02:14;;;;;;;0.7;0.6;;;;;;;;;;;;;
2023/05/15 02:04:39;;;;;;;0.7;0.7;;;;;;;;;;;;;
2023/05/15 02:07:05;;;;;;;0.8;0.8;;;;;;;;;;;;;
2023/05/15 02:09:30;;;;;;;0.8;0.8;;;;;;;;;;;;;
2023/05/15 02:11:57;;;;;;;0.7;0.7;;;;;;;;;;;;;
2023/05/15 02:14:22;;;;;;;0.7;0.7;;;;;;;;;;;;;
2023/05/15 02:16:50;;;;;;;1;0.9;;;;;;;;;;;;;
2023/05/15 02:19:14;;;;;;;0.9;0.9;;;;;;;;;;;;;
2023/05/15 02:21:40;;;;;;;0.9;0.9;;;;;;;;;;;;;
2023/05/15 02:24:05;;;;;;;0.8;0.8;;;;;;;;;;;;;
2023/05/15 02:26:30;;;;;;;1;0.9;;;;;;;;;;;;;
2023/05/15 02:28:55;;;;;;;0.7;0.7;;;;;;;;;;;;;
2023/05/15 02:31:22;;;;;;;0.7;0.7;;;;;;;;;;;;;
2023/05/15 02:33:47;;;;;;;1;0.9;;;;;;;;;;;;;
2023/05/15 02:36:12;;;;;;;0.8;0.8;;;;;;;;;;;;;
2023/05/15 02:38:38;;;;;;;1.3;1;;;;;;;;;;;;;
2023/05/15 02:41:03;;;;;;;1.5;1;;;;;;;;;;;;;
2023/05/15 02:43:29;;;;;;;1.2;1.1;;;;;;;;;;;;;
2023/05/15 02:45:54;;;;;;;1.5;0.8;;;;;;;;;;;;;
2023/05/15 02:48:20;;;;;;;0.7;0.7;;;;;;;;;;;;;
2023/05/15 02:50:45;;;;;;;0.5;0.5;;;;;;;;;;;;;
2023/05/15 02:53:13;;;;;;;0.8;0.8;;;;;;;;;;;;;
2023/05/15 02:55:36;;;;;;;1;0.9;;;;;;;;;;;;;
2023/05/15 02:58:03;;;;;;;0.6;0.6;;;;;;;;;;;;;
2023/05/15 03:00:28;;;;;;;1.2;0.7;;;;;;;;;;;;;
2023/05/15 03:02:53;;;;;;;4.7;0.9;;;;;;;;;;;;;
2023/05/15 03:05:18;;;;;;;0.9;0.9;;;;;;;;;;;;;
2023/05/15 03:07:43;;;;;;;0.6;0.6;;;;;;;;;;;;;
2023/05/15 03:10:10;;;;;;;1.8;1.4;;;;;;;;;;;;;
2023/05/15 03:12:35;;;;;;;1.8;1.1;;;;;;;;;;;;;
2023/05/15 03:15:00;;;;;;;1.1;1;;;;;;;;;;;;;
2023/05/15 03:17:25;;;;;;;1;0.9;;;;;;;;;;;;;
2023/05/15 03:19:51;;;;;;;1.7;1;;;;;;;;;;;;;
2023/05/15 03:22:16;;;;;;;1;0.9;;;;;;;;;;;;;
2023/05/15 03:24:43;;;;;;;1;0.9;;;;;;;;;;;;;
2023/05/15 03:27:08;;;;;;;1;0.9;;;;;;;;;;;;;
2023/05/15 03:29:33;;;;;;;1.1;0.6;;;;;;;;;;;;;
2023/05/15 03:31:59;;;;;;;0.9;0.7;;;;;;;;;;;;;
2023/05/15 03:34:25;;;;;;;0.9;0.8;;;;;;;;;;;;;
2023/05/15 03:36:50;;;;;;;0.8;0.8;;;;;;;;;;;;;
2023/05/15 03:39:17;;;;;;;0.9;0.7;;;;;;;;;;;;;
2023/05/15 03:41:42;;;;;;;0.8;0.8;;;;;;;;;;;;;
2023/05/15 03:44:08;;;;;;;1;0.9;;;;;;;;;;;;;
2023/05/15 03:46:33;;;;;;;0.9;0.9;;;;;;;;;;;;;
2023/05/15 03:48:58;;;;;;;1.2;0.8;;;;;;;;;;;;;
2023/05/15 03:51:24;;;;;;;0.8;0.8;;;;;;;;;;;;;
2023/05/15 03:53:49;;;;;;;0.8;0.8;;;;;;;;;;;;;
2023/05/15 03:56:14;;;;;;;1;0.9;;;;;;;;;;;;;
2023/05/15 03:58:41;;;;;;;0.8;0.8;;;;;;;;;;;;;
2023/05/15 04:02:31;;;;;;;1.6;1.1;;;;;;;10.32;98.95215;932.594;;;;
2023/05/15 04:04:56;;;;;;;1.3;1.1;;;;;;;10.38;99.16113;932.6506;;;;
2023/05/15 04:07:21;;;;;;;1.3;1.2;;;;;;;10.46;99.17969;932.5984;;;;
2023/05/15 04:09:51;;;;;;;1.2;1.1;;;;;;;10.52;99.20313;932.6501;;;;
2023/05/15 04:12:16;;;;;;;1.4;1.1;;;;;;;10.56;99.08789;932.6055;;;;
2023/05/15 04:14:46;;;;;;;2;1.3;;;;;;;10.61;98.8584;932.6365;;;;
2023/05/15 04:17:11;;;;;;;1.1;1;;;;;;;10.58;98.87695;932.6884;;;;
2023/05/15 04:19:44;;;;;;;1.4;1.2;;;;;;;10.55;99.18848;932.7098;;;;
2023/05/15 04:22:07;;;;;;;1.1;1;;;;;;;10.58;98.81836;932.6891;;;;
2023/05/15 04:24:37;;;;;;;1.8;1.5;;;;;;;10.37;98.88477;932.7134;;;;
2023/05/15 04:27:03;;;;;;;2.2;1.7;;;;;;;10.21;99.7373;932.7419;;;;
2023/05/15 04:29:28;;;;;;;2.2;1.8;;;;;;;10.3;100;932.6886;;;;
2023/05/15 04:31:53;;;;;;;2.4;1.3;;;;;;;10.39;100;932.7675;;;;
2023/05/15 04:34:21;;;;;;;2.1;1.4;;;;;;;10.43;100;932.7567;;;;
2023/05/15 04:37:35;;;;;;;1.7;1.6;;;;;;;10.48;99.98242;932.7042;;;;
2023/05/15 04:40:00;;;;;;;1.5;1.3;;;;;;;10.2;100;932.7205;;;;
2023/05/15 04:42:35;;;;;;;1.2;1.1;;;;;;;10.31;100;932.7109;;;;
2023/05/15 04:45:01;;;;;;;2.5;2;;;;;;;10.39;100;932.8217;;;;
2023/05/15 04:47:29;;;;;;;3.2;2.5;;;;;;;10.4;100;932.8209;;;;
2023/05/15 04:49:55;;;;;;;3.6;1.4;;;;;;;10.41;100;932.7477;;;;
2023/05/15 04:52:21;;;;;;;1.7;1.1;;;;;;;10.29;100;932.7874;;;;
2023/05/15 04:54:50;;;;;;;1.9;1.2;;;;;;;10.32;100;932.7738;;;;
2023/05/15 04:57:13;;;;;;;1.4;1.3;;;;;;;10.41;100;932.8081;;;;
2023/05/15 04:59:38;;;;;;;1.4;1.2;;;;;;;10.42;100;932.861;;;;
2023/05/15 05:02:06;;;;;;;1.7;1;;;;;;;10.23;99.65039;932.8167;;;;
2023/05/15 05:04:31;;;;;;;1.7;1.3;;;;;;;10.28;99.91406;932.9543;;;;
2023/05/15 05:07:04;;;;;;;1.2;1.1;;;;;;;10.25;100;932.889;;;;
2023/05/15 05:09:33;;;;;;;0.9;0.9;;;;;;;10.18;100;932.8502;;;;
2023/05/15 05:11:58;;;;;;;1.3;1.1;;;;;;;10.34;100;932.9083;;;;
2023/05/15 05:14:30;;;;;;;1.7;1.1;;;;;;;10.44;100;932.9533;;;;
2023/05/15 05:16:53;;;;;;;1.6;1.2;;;;;;;10.49;99.02539;932.9964;;;;
2023/05/15 05:19:20;;;;;;;1;1;;;;;;;10.56;98.7793;932.9972;;;;
2023/05/15 05:21:46;;;;;;;1.3;1.2;;;;;;;10.57;98.71289;932.9653;;;;
2023/05/15 05:24:14;;;;;;;1.4;1.2;;;;;;;10.66;98.41406;932.9952;;;;
2023/05/15 05:26:39;;;;;;;2;1;;;;;;;10.7;98.75586;932.9601;;;;
2023/05/15 05:29:05;;;;;;;2;1.2;;;;;;;10.73;98.39648;932.9586;;;;
2023/05/15 05:31:31;;;;;;;1.6;1.3;;;;;;;10.82;97.94824;933.0234;;;;
2023/05/15 05:33:59;;;;;;;2;1.5;;;;;;;10.85;97.66895;933.1046;;;;
2023/05/15 05:36:25;;;;;;;1.4;1.2;;;;;;;10.78;98.47461;933.0541;;;;
2023/05/15 05:38:54;;;;;;;1.4;1.3;;;;;;;10.82;98.94043;933.0003;;;;
2023/05/15 05:41:20;;;;;;;3.2;1.8;;;;;;;10.82;99.07715;933.0217;;;;
2023/05/15 05:43:48;;;;;;;2;1.8;;;;;;;10.89;98.77344;932.9604;;;;
2023/05/15 05:46:13;;;;;;;4.8;2.5;;;;;;;10.86;98.88184;933.0464;;;;
2023/05/15 05:48:38;;;;;;;1.9;1.7;;;;;;;10.83;99.25098;933.0353;;;;
2023/05/15 05:51:03;;;;;;;1.9;1.7;;;;;;;10.91;99.37402;932.9914;;;;
2023/05/15 05:53:32;;;;;;;1.7;1.4;;;;;;;10.85;98.67383;933.0902;;;;
2023/05/15 05:55:57;;;;;;;2.3;1.7;;;;;;;10.82;98.73633;933.1301;;;;
2023/05/15 05:58:24;;;;;;;2.3;1.4;;;;;;;10.78;98.58887;933.1218;;;;
2023/05/15 06:00:49;;;;;;;1.6;1.5;;;;;;;10.62;98.50684;933.1169;;;;
2023/05/15 06:03:19;;;;;;;2.5;1.5;;;;;;;10.64;99.60938;933.152;;;;
2023/05/15 06:05:47;;;;;;;3.1;1.9;;;;;;;10.66;99.14453;933.1146;;;;
2023/05/15 06:08:13;;;;;;;4.8;3.2;;;;;;;10.57;99.43066;933.1127;;;;
2023/05/15 06:10:38;;;;;;;5.5;3.4;;;;;;;10.49;100;933.0553;;;;
2023/05/15 06:13:03;;;;;;;5.2;3.4;;;;;;;10.59;100;933.1096;;;;
2023/05/15 06:15:31;;;;;;;4.1;2.5;;;;;;;10.57;100;933.2344;;;;
2023/05/15 06:17:56;;;;;;;2.1;1.9;;;;;;;10.56;99.95605;933.2424;;;;
2023/05/15 06:20:24;;;;;;;2.5;1.7;;;;;;;10.59;99.81543;933.1978;;;;
2023/05/15 06:22:49;;;;;;;1.7;1.6;;;;;;;10.72;99.87695;933.3153;;;;
2023/05/15 06:25:18;;;;;;;2.6;1.6;;;;;;;10.84;99.47168;933.2654;;;;
2023/05/15 06:27:46;;;;;;;1.9;1.7;;;;;;;10.99;99.08398;933.22;;;;
2023/05/15 06:30:11;;;;;;;2.1;1.8;;;;;;;11.1;99.04102;933.2035;;;;
2023/05/15 06:32:38;;;;;;;1.7;1.6;;;;;;;11.27;98.53125;933.2092;;;;
2023/05/15 06:35:03;;;;;;;2;1.4;;;;;;;11.3;97.88477;933.19;;;;
2023/05/15 06:37:34;;;;;;;1.3;1.2;;;;;;;11.42;95.84082;933.2004;;;;
2023/05/15 06:40:01;;;;;;;1.4;1.3;;;;;;;11.41;94.76563;933.2108;;;;
2023/05/15 06:42:27;;;;;;;4.1;1.6;;;;;;;11.52;95.22363;933.1778;;;;
2023/05/15 06:44:58;;;;;;;1.9;1.4;;;;;;;11.53;94.52539;933.2424;;;;
2023/05/15 06:47:24;;;;;;;1.6;1.5;;;;;;;11.61;94.88672;933.302;;;;
2023/05/15 06:49:50;;;;;;;1.8;1.4;;;;;;;11.66;95.12598;933.3428;;;;
2023/05/15 06:52:16;;;;;;;1.8;1.5;;;;;;;11.58;96.5293;933.3141;;;;
2023/05/15 06:54:42;;;;;;;1.9;1.8;;;;;;;11.62;96.79102;933.3557;;;;
2023/05/15 06:57:10;;;;;;;1.7;1.6;;;;;;;11.65;96.45117;933.2814;;;;
2023/05/15 06:59:35;;;;;;;1.3;1.2;;;;;;;11.7;96.35156;933.29;;;;
2023/05/15 07:02:01;;;;;;;1.3;1.2;;;;;;;11.58;96.51758;933.3475;;;;
2023/05/15 07:04:27;;;;;;;2.2;2;;;;;;;11.61;96.45508;933.3705;;;;
2023/05/15 07:06:54;;;;;;;2.1;1.9;;;;;;;11.75;96.60156;933.3434;;;;
2023/05/15 07:09:20;;;;;;;1.9;1.8;;;;;;;11.84;97.11426;933.366;;;;
2023/05/15 07:11:49;;;;;;;2;1.8;;;;;;;11.98;96.74512;933.3248;;;;
2023/05/15 07:14:18;;;;;;;1.9;1.8;;;;;;;12.03;96.03418;933.2522;;;;
2023/05/15 07:16:44;;;;;;;1.6;1.4;;;;;;;12.17;95.05566;933.3745;;;;
2023/05/15 07:19:12;;;;;;;2.8;1.5;;;;;;;12.17;92.65039;933.3106;;;;
2023/05/15 07:21:37;;;;;;;1.7;1.4;;;;;;;12.16;92.94434;933.3234;;;;
2023/05/15 07:24:05;;;;;;;2;1.4;;;;;;;12.16;93.51758;933.3378;;;;
2023/05/15 07:26:30;;;;;;;1.4;1.3;;;;;;;11.95;91.16113;933.2946;;;;
2023/05/15 07:29:02;;;;;;;1.9;1.6;;;;;;;12.15;94.94824;933.3011;;;;
2023/05/15 07:31:27;;;;;;;2.4;1.8;;;;;;;12.34;95.40234;933.2908;;;;
2023/05/15 07:33:56;;;;;;;2.2;1.7;;;;;;;12.25;92.58398;933.317;;;;
2023/05/15 07:36:30;;;;;;;2.1;1.7;;;;;;;12.56;93.04102;933.2548;;;;
2023/05/15 07:39:01;;;;;;;2.3;1.5;;;;;;;12.38;91.00879;933.269;;;;
2023/05/15 07:41:26;;;;;;;1.7;1.6;;;;;;;12.2;91.72559;933.2523;;;;
2023/05/15 07:43:51;;;;;;;1.7;1.4;;;;;;;12.46;92.01074;933.2378;;;;
2023/05/15 07:46:16;;;;;;;1.7;1.4;;;;;;;12.62;89.94531;933.2371;;;;
2023/05/15 07:48:48;;;;;;;1.6;1.3;;;;;;;12.77;92.1123;933.157;;;;
2023/05/15 07:51:19;;;;;;;1.5;1.4;;;;;;;12.8;89.84473;933.1216;;;;
2023/05/15 07:53:50;;;;;;;1.4;1.3;;;;;;;12.73;89.10742;933.1484;;;;
2023/05/15 07:56:15;;;;;;;2.2;1.3;;;;;;;13.05;91.01172;933.1169;;;;
2023/05/15 07:58:42;;;;;;;1.4;1.1;;;;;;;13.49;88.0918;933.1233;;;;
2023/05/15 08:01:07;;;;;;;1.2;1.1;;;;;;;13.37;87.16016;933.1139;;;;
2023/05/15 08:03:35;;;;;;;1.3;1.2;;;;;;;13.44;85.5293;933.0136;;;;
2023/05/15 08:06:00;;;;;;;1.6;1.3;;;;;;;13.9;86.78027;933.0828;;;;
2023/05/15 08:08:29;;;;;;;2.4;1.1;;;;;;;14.65;81.13379;933.1144;;;;
2023/05/15 08:10:59;;;;;;;1.5;1.3;;;;;;;15.97;80.81152;933.0087;;;;
2023/05/15 08:13:24;;;;;;;1.4;1.2;;;;;;;15.67;79.82129;933.0544;;;;
2023/05/15 08:15:54;;;;;;;1.9;1.4;;;;;;;15.31;80.37695;933.0608;;;;
2023/05/15 08:18:21;;;;;;;1.2;0.9;;;;;;;14.95;78.36328;933.0667;;;;
2023/05/15 08:20:46;;;;;;;3;1.6;;;;;;;14.6;77.14746;933.0563;;;;
2023/05/15 08:23:13;;;;;;;1.6;1.2;;;;;;;14.75;81.23438;933.0103;;;;
2023/05/15 08:25:38;;;;;;;1.3;1.2;;;;;;;14.53;79.47559;933.0036;;;;
2023/05/15 08:28:03;;;;;;;1.1;1;;;;;;;14.16;80.53613;932.9412;;;;
2023/05/15 08:30:28;;;;;;;0.8;0.8;;;;;;;13.97;82.55957;932.9858;;;;
2023/05/15 08:32:58;;;;;;;1.7;1.5;;;;;;;14.46;84.28809;932.9878;;;;
2023/05/15 08:35:27;;;;;;;1.4;1;;;;;;;14.4;80.82324;933.0089;;;;
2023/05/15 08:37:53;;;;;;;1.4;1.1;;;;;;;14.35;80.54785;932.9952;;;;
2023/05/15 08:40:22;;;;;;;1.1;0.9;;;;;;;14.26;81.38379;933.0251;;;;
2023/05/15 08:42:50;;;;;;;1.1;1;;;;;;;14.92;77.47949;932.9959;;;;
2023/05/15 08:45:19;;;;;;;1;1;;;;;;;15.2;75.10742;932.9724;;;;
2023/05/15 08:47:44;;;;;;;1.2;0.9;;;;;;;15.08;74.83203;932.8999;;;;
2023/05/15 08:50:10;;;;;;;1.3;1.2;;;;;;;15.92;76.97754;932.9222;;;;
2023/05/15 08:52:34;;;;;;;1.2;1.1;;;;;;;16.17;73.07617;932.8757;;;;
2023/05/15 08:55:02;;;;;;;0.9;0.9;;;;;;;15.88;72.58887;932.8364;;;;
2023/05/15 08:57:28;;;;;;;1.3;1.2;;;;;;;15.68;75.16699;932.9434;;;;
2023/05/15 08:59:53;;;;;;;1.2;1.1;;;;;;;15.77;72.36133;932.8293;;;;
2023/05/15 09:02:20;;;;;;;1;1;;;;;;;15.51;72.40039;932.8176;;;;
2023/05/15 09:04:45;;;;;;;1.1;1;;;;;;;15.46;73.99609;932.7849;;;;
2023/05/15 09:07:11;;;;;;;1.1;1;;;;;;;15.54;75.7998;932.7288;;;;
2023/05/15 09:09:36;;;;;;;1.6;1.1;;;;;;;15.51;75.37988;932.7028;;;;
2023/05/15 09:12:02;;;;;;;1.3;1.2;;;;;;;15.55;77.62793;932.7028;;;;
2023/05/15 09:14:28;;;;;;;1.1;1;;;;;;;15.43;77.70996;932.7492;;;;
2023/05/15 09:16:53;;;;;;;1.5;1.3;;;;;;;15.39;79.29688;932.764;;;;
2023/05/15 09:19:21;;;;;;;1.1;1;;;;;;;15.76;77.08594;932.722;;;;
2023/05/15 09:21:45;;;;;;;1.5;1.1;;;;;;;15.88;76.0332;932.756;;;;
2023/05/15 09:24:10;;;;;;;1.4;1.2;;;;;;;15.89;75.03027;932.7534;;;;
2023/05/15 09:26:35;;;;;;;1.2;1.1;;;;;;;15.79;74.65332;932.7567;;;;
2023/05/15 09:29:00;;;;;;;1.7;1.3;;;;;;;15.69;74.39453;932.8773;;;;
2023/05/15 09:31:25;;;;;;;1.2;1.1;;;;;;;15.56;74.45215;932.9861;;;;
2023/05/15 09:33:53;;;;;;;1.4;1.3;;;;;;;15.27;75.0166;933.1127;;;;
2023/05/15 09:36:18;;;;;;;1.4;1.2;;;;;;;14.2;72.34473;933.1674;;;;
2023/05/15 09:38:51;;;;;;;1.2;1.1;;;;;;;13.69;74.27344;933.1552;;;;
2023/05/15 09:41:20;;;;;;;1.4;1.3;;;;;;;13.3;74.89648;933.0714;;;;
2023/05/15 09:43:45;;;;;;;1.5;1.2;;;;;;;13.27;77.2002;933.21;;;;
2023/05/15 09:46:16;;;;;;;1.8;1.5;;;;;;;13.09;77.63867;933.1583;;;;
2023/05/15 09:48:40;;;;;;;1.5;1.3;;;;;;;12.93;78.21777;933.1273;;;;
2023/05/15 09:51:06;;;;;;;1.5;1.1;;;;;;;13.24;79.01074;933.1311;;;;
2023/05/15 09:53:31;;;;;;;1.2;1.1;;;;;;;13.17;76.01172;933.1543;;;;
2023/05/15 09:55:56;;;;;;;1.4;1.3;;;;;;;13.31;76.58594;933.1744;;;;
2023/05/15 09:58:22;;;;;;;1.5;1.4;;;;;;;13.54;76.12109;933.218;;;;
2023/05/15 10:00:46;;;;;;;1.3;1.2;;;;;;;13.19;73.99316;933.1752;;;;
2023/05/15 10:03:11;;;;;;;1.9;1.5;;;;;;;13.17;76.06836;933.1863;;;;
2023/05/15 10:05:42;;;;;;;1.6;1.1;;;;;;;13.48;75.28223;933.1252;;;;
2023/05/15 10:08:07;;;;;;;1.6;1.5;;;;;;;13.46;74.10742;933.21;;;;
2023/05/15 10:10:32;;;;;;;1.4;1.3;;;;;;;13.39;74.91211;933.272;;;;
2023/05/15 10:12:58;;;;;;;1.7;1.5;;;;;;;13.36;75.80273;933.325;;;;
2023/05/15 10:15:26;;;;;;;1.7;1.6;;;;;;;13.41;76.31738;933.3278;;;;
2023/05/15 10:17:51;;;;;;;1.7;1.6;;;;;;;13.21;77.42969;933.3886;;;;
2023/05/15 10:20:20;;;;;;;2;1.7;;;;;;;12.87;80.68848;933.4282;;;;
2023/05/15 10:22:46;;;;;;;1.8;1.7;;;;;;;12.93;81.44434;933.3918;;;;
2023/05/15 10:25:14;;;;;;;1.7;1.6;;;;;;;13.03;81.69238;933.46;;;;
2023/05/15 10:27:45;;;;;;;1.9;1.6;;;;;;;12.93;82.93652;933.3886;;;;
2023/05/15 10:30:10;;;;;;;1.6;1.5;;;;;;;13.08;82.18555;933.4101;;;;
2023/05/15 10:32:40;;;;;;;1.7;1.5;;;;;;;13.09;81.43066;933.509;;;;
2023/05/15 10:35:04;;;;;;;1.5;1.4;;;;;;;13.03;81.46289;933.524;;;;
2023/05/15 10:37:30;;;;;;;1.8;1.7;;;;;;;13.15;82.99121;933.5686;;;;
2023/05/15 10:39:57;;;;;;;2.4;1.6;;;;;;;12.97;83.12793;933.5522;;;;
2023/05/15 10:42:22;;;;;;;1.5;1.4;;;;;;;12.99;80.80176;933.5736;;;;
2023/05/15 10:44:49;;;;;;;1.6;1.4;;;;;;;12.51;82.1123;933.5193;;;;
2023/05/15 10:47:14;;;;;;;1.8;1.7;;;;;;;12.45;84.16406;933.5109;;;;
2023/05/15 10:49:40;;;;;;;2.2;1.7;;;;;;;12.66;83.70117;933.4988;;;;
2023/05/15 10:52:05;;;;;;;1.2;1.1;;;;;;;12.32;81.35254;933.5736;;;;
2023/05/15 10:54:33;;;;;;;1.3;1.2;;;;;;;11.8;84.66797;933.6036;;;;
2023/05/15 10:56:58;;;;;;;1.4;1;;;;;;;11.86;84.09668;933.5933;;;;
2023/05/15 10:59:24;;;;;;;0.9;0.9;;;;;;;11.43;84.6416;933.5369;;;;
2023/05/15 11:01:50;;;;;;;1;0.9;;;;;;;11.26;87.18359;933.5136;;;;
2023/05/15 11:04:20;;;;;;;1.4;1.1;;;;;;;11.35;88.74414;933.555;;;;
2023/05/15 11:06:45;;;;;;;1.1;1;;;;;;;11.55;88.08789;933.4871;;;;
2023/05/15 11:09:13;;;;;;;1.2;1.1;;;;;;;11.81;86.90332;933.483;;;;
2023/05/15 11:11:38;;;;;;;1.3;1.2;;;;;;;11.8;85.19531;933.4767;;;;
2023/05/15 11:14:08;;;;;;;1.1;1;;;;;;;11.78;87.91699;933.4255;;;;
2023/05/15 11:16:33;;;;;;;0.9;0.9;;;;;;;12.11;86.63184;933.3484;;;;
2023/05/15 11:18:58;;;;;;;1.6;1.5;;;;;;;12.3;86.7832;933.3334;;;;
2023/05/15 11:21:24;;;;;;;1.9;1.5;;;;;;;12.66;88.39453;933.3071;;;;
2023/05/15 11:23:49;;;;;;;1.5;1.4;;;;;;;13.51;86.47461;933.2303;;;;
2023/05/15 11:26:17;;;;;;;2.1;1.4;;;;;;;14.8;82.74023;933.2548;;;;
2023/05/15 11:28:44;;;;;;;0.8;0.8;;;;;;;15.31;71.93848;933.2188;;;;
2023/05/15 11:31:08;;;;;;;0.8;0.8;;;;;;;15.83;71.74902;933.2242;;;;
2023/05/15 11:33:35;;;;;;;0.7;0.7;;;;;;;15.61;70.58008;933.1587;;;;
2023/05/15 11:36:01;;;;;;;1.1;1;;;;;;;15.22;72.7334;933.1432;;;;
2023/05/15 11:38:26;;;;;;;1;0.8;;;;;;;15.33;72.10449;933.1301;;;;
2023/05/15 11:40:54;;;;;;;1;0.9;;;;;;;14.51;73.87012;933.1345;;;;
2023/05/15 11:43:18;;;;;;;0.7;0.7;;;;;;;14.71;73.30664;933.0493;;;;
2023/05/15 11:45:45;;;;;;;0.9;0.9;;;;;;;14.78;74.10059;932.9907;;;;
2023/05/15 11:48:11;;;;;;;0.7;0.7;;;;;;;15.1;69.88574;932.9758;;;;
2023/05/15 11:50:40;;;;;;;1.2;0.8;;;;;;;15.58;74.35156;932.9503;;;;
2023/05/15 11:53:05;;;;;;;0.6;0.4;;;;;;;15.68;70.64941;932.9114;;;;
2023/05/15 11:55:34;;;;;;;0.7;0.7;;;;;;;15.7;69.74121;932.9543;;;;
2023/05/15 11:57:58;;;;;;;0.7;0.7;;;;;;;15.92;73.31152;932.9367;;;;
2023/05/15 12:00:26;;;;;;;0.7;0.7;;;;;;;15.62;69.45117;932.8972;;;;
2023/05/15 12:02:51;;;;;;;0.5;0.5;;;;;;;15.74;67.79199;932.9142;;;;
2023/05/15 12:05:20;;;;;;;1.1;0.8;;;;;;;16.29;70.53906;932.827;;;;
2023/05/15 12:07:45;;;;;;;0.7;0.7;;;;;;;15.84;67.49609;932.8299;;;;
2023/05/15 12:10:10;;;;;;;1.1;0.8;;;;;;;15.9;65.7832;932.7581;;;;
2023/05/15 12:12:39;;;;;;;0.7;0.7;;;;;;;16.25;69.34277;932.7224;;;;
2023/05/15 12:15:04;;;;;;;3.5;2.3;;;;;;;16.37;67.41602;932.8098;;;;
2023/05/15 12:17:34;;;;;;;1;1;;;;;;;16.74;65.45898;932.78;;;;
2023/05/15 12:20:04;;;;;;;0.7;0.7;;;;;;;16.74;64.70508;932.7222;;;;
2023/05/15 12:22:30;;;;;;;1;0.8;;;;;;;16.23;64.29492;932.6611;;;;
2023/05/15 12:24:55;;;;;;;0.8;0.8;;;;;;;16.06;71.08105;932.7358;;;;
2023/05/15 12:27:20;;;;;;;0.8;0.8;;;;;;;15.88;73.12012;932.7053;;;;
2023/05/15 12:29:46;;;;;;;0.7;0.7;;;;;;;16.29;68.00488;932.5842;;;;
2023/05/15 12:32:11;;;;;;;1.3;1.2;;;;;;;16.33;68.95898;932.541;;;;
2023/05/15 12:34:36;;;;;;;0.9;0.9;;;;;;;16.25;71.88672;932.5394;;;;
2023/05/15 12:37:04;;;;;;;1.3;1;;;;;;;16.06;71.56641;932.478;;;;
2023/05/15 12:39:28;;;;;;;1.2;1.1;;;;;;;16.33;66.98242;932.5433;;;;
2023/05/15 12:41:54;;;;;;;0.9;0.9;;;;;;;16.73;67.81934;932.4875;;;;
2023/05/15 12:44:21;;;;;;;1.5;0.9;;;;;;;17.27;66.21094;932.4841;;;;
2023/05/15 12:46:46;;;;;;;1.1;0.8;;;;;;;17.63;68.45898;932.4412;;;;
2023/05/15 12:49:11;;;;;;;1.2;1.1;;;;;;;17.33;61.37207;932.3884;;;;
2023/05/15 12:51:40;;;;;;;0.8;0.8;;;;;;;17.58;64.0625;932.3427;;;;
2023/05/15 12:54:06;;;;;;;1.7;1.4;;;;;;;17.19;62.34961;932.3287;;;;
2023/05/15 12:56:30;;;;;;;1.7;0.9;;;;;;;17.09;63.13379;932.3178;;;;
2023/05/15 12:58:58;;;;;;;1.6;1.1;;;;;;;16.77;64.04883;932.3284;;;;
2023/05/15 13:01:23;;;;;;;1.7;0.8;;;;;;;16.38;66.52637;932.3574;;;;
2023/05/15 13:03:49;;;;;;;1.1;1;;;;;;;16.72;66.3584;932.3416;;;;
2023/05/15 13:06:15;;;;;;;0.9;0.9;;;;;;;16.91;66.89551;932.3502;;;;
2023/05/15 13:08:42;;;;;;;0.9;0.9;;;;;;;17.31;65.17188;932.3254;;;;
2023/05/15 13:11:06;;;;;;;0.9;0.9;;;;;;;17.53;64.9834;932.3739;;;;
2023/05/15 13:13:32;;;;;;;1.7;1.1;;;;;;;17.77;63.27832;932.2899;;;;
2023/05/15 13:15:58;;;;;;;0.7;0.7;;;;;;;17.91;62.97363;932.4127;;;;
2023/05/15 13:18:28;;;;;;;0.9;0.9;;;;;;;17.97;64.94531;932.3842;;;;
2023/05/15 13:20:53;;;;;;;0.8;0.8;;;;;;;17.93;64.28809;932.3894;;;;
2023/05/15 13:23:22;;;;;;;1;0.8;;;;;;;18.16;63.47363;932.3195;;;;
2023/05/15 13:25:46;;;;;;;1.1;1;;;;;;;18.19;62.89746;932.3234;;;;
2023/05/15 13:28:14;;;;;;;0.8;0.8;;;;;;;18.42;62.59277;932.3;;;;
2023/05/15 13:30:40;;;;;;;0.6;0.6;;;;;;;18.53;62.77246;932.2767;;;;
2023/05/15 13:33:08;;;;;;;0.8;0.8;;;;;;;18.24;61.28906;932.2023;;;;
2023/05/15 13:35:33;;;;;;;0.6;0.6;;;;;;;18.32;62.69434;932.3215;;;;
2023/05/15 13:37:59;;;;;;;1;0.9;;;;;;;18.11;62.84961;932.3445;;;;
2023/05/15 13:40:24;;;;;;;1;0.9;;;;;;;18.19;61.72266;932.3533;;;;
2023/05/15 13:42:50;;;;;;;0.7;0.7;;;;;;;18.3;60.25098;932.3374;;;;
2023/05/15 13:45:15;;;;;;;1.5;0.8;;;;;;;18.29;61.59668;932.3273;;;;
2023/05/15 13:47:42;;;;;;;0.8;0.8;;;;;;;17.84;63.61523;932.2792;;;;
2023/05/15 13:50:07;;;;;;;0.8;0.8;;;;;;;17.55;65.71777;932.3016;;;;
2023/05/15 13:52:37;;;;;;;1.6;0.8;;;;;;;17.15;65.46191;932.3677;;;;
2023/05/15 13:55:04;;;;;;;1.1;0.9;;;;;;;17;65.63574;932.4356;;;;
2023/05/15 13:57:30;;;;;;;0.9;0.9;;;;;;;16.57;65.14258;932.5036;;;;
2023/05/15 14:00:00;;;;;;;1.5;1.1;;;;;;;16.4;64.31836;932.5538;;;;
2023/05/15 14:02:25;;;;;;;1.2;1.1;;;;;;;15.82;67.31934;932.6489;;;;
2023/05/15 14:04:53;;;;;;;1.7;1.5;;;;;;;15.36;69.18848;932.7261;;;;
2023/05/15 14:07:18;;;;;;;1;0.9;;;;;;;14.88;66.94629;932.6992;;;;
2023/05/15 14:09:44;;;;;;;2.9;1.5;;;;;;;14.45;71.56836;932.8638;;;;
2023/05/15 14:12:10;;;;;;;2;1.4;;;;;;;14.47;70.99512;932.9059;;;;
2023/05/15 14:14:35;;;;;;;1.1;1;;;;;;;14.28;69.88184;932.9183;;;;
2023/05/15 14:17:02;;;;;;;1.2;1.1;;;;;;;13.83;72.75684;932.9554;;;;
2023/05/15 14:19:27;;;;;;;1;1;;;;;;;13.87;73.1748;932.975;;;;
2023/05/15 14:21:52;;;;;;;1.8;1.4;;;;;;;13.78;73.54004;933.0222;;;;
2023/05/15 14:24:18;;;;;;;1.3;1.2;;;;;;;13.62;76.30762;933.0439;;;;
2023/05/15 14:26:44;;;;;;;1;1;;;;;;;13.52;77.37109;933.0375;;;;
2023/05/15 14:29:09;;;;;;;1.3;1.2;;;;;;;13.55;78.52539;933.0996;;;;
2023/05/15 14:31:38;;;;;;;1.2;1.1;;;;;;;13.5;80.08105;933.1297;;;;
2023/05/15 14:34:04;;;;;;;1.3;1.2;;;;;;;13.42;79.31934;933.1169;;;;
2023/05/15 14:36:32;;;;;;;1.1;1;;;;;;;13.21;80.76172;933.1671;;;;
2023/05/15 14:38:57;;;;;;;1.1;1;;;;;;;13.14;81.24219;933.113;;;;
2023/05/15 14:41:23;;;;;;;1.4;1.3;;;;;;;13.02;82.64453;933.202;;;;
2023/05/15 14:43:48;;;;;;;1.5;1.2;;;;;;;12.99;83.15527;933.1987;;;;
2023/05/15 14:46:15;;;;;;;1.9;1.2;;;;;;;12.96;84.74609;933.1838;;;;
2023/05/15 14:48:40;;;;;;;1.1;1;;;;;;;12.56;84.50684;933.23;;;;
2023/05/15 14:51:07;;;;;;;7.5;5;;;;;;;12.29;87.45898;933.2361;;;;
2023/05/15 14:53:33;;;;;;;6.1;4.2;;;;;;;12.32;89.24219;933.2894;;;;
2023/05/15 14:55:59;;;;;;;3.6;2.8;;;;;;;12.45;88.38672;933.2203;;;;
2023/05/15 14:58:24;;;;;;;2.2;1.6;;;;;;;12.56;87.73145;933.2603;;;;
2023/05/15 15:00:50;;;;;;;2;1.6;;;;;;;12.6;87.55371;933.3128;;;;
2023/05/15 15:03:15;;;;;;;2.4;1.7;;;;;;;12.41;88.83398;933.4255;;;;
2023/05/15 15:05:41;;;;;;;1.8;1.5;;;;;;;12.27;90.96191;933.4119;;;;
2023/05/15 15:08:06;;;;;;;1.9;1.5;;;;;;;12.22;89.81543;933.4847;;;;
2023/05/15 15:10:32;;;;;;;1.8;1.6;;;;;;;12.43;90.60547;933.535;;;;
2023/05/15 15:12:58;;;;;;;1.6;1.5;;;;;;;12.31;91.26953;933.4787;;;;
2023/05/15 15:15:27;;;;;;;2;1.7;;;;;;;12.56;92.52637;933.4855;;;;
2023/05/15 15:17:57;;;;;;;1.8;1.7;;;;;;;12.44;94.6582;933.5828;;;;
2023/05/15 15:20:23;;;;;;;1.9;1.7;;;;;;;12.42;93.26465;933.555;;;;
2023/05/15 15:22:49;;;;;;;1.8;1.7;;;;;;;12.53;91.47559;933.5856;;;;
2023/05/15 15:25:17;;;;;;;3.1;2.1;;;;;;;12.66;91.41211;933.6473;;;;
2023/05/15 15:27:47;;;;;;;3;1.7;;;;;;;12.86;88.38672;933.64;;;;
2023/05/15 15:30:18;;;;;;;2.1;1.7;;;;;;;12.61;88.57617;933.606;;;;
2023/05/15 15:32:44;;;;;;;1.2;1.1;;;;;;;;;;;;;
2023/05/15 15:35:10;;;;;;;1.4;1.3;;;;;;;;;;;;;
2023/05/15 15:37:37;;;;;;;1.8;1.4;;;;;;;;;;;;;
2023/05/15 15:40:02;;;;;;;1.5;1.3;;;;;;;;;;;;;
2023/05/15 15:42:30;;;;;;;1.4;1.2;;;;;;;;;;;;;
2023/05/15 15:44:55;;;;;;;1.1;1;;;;;;;;;;;;;
2023/05/15 15:47:20;;;;;;;1.7;1.4;;;;;;;;;;;;;